Terminal Aerodrome Forecast
Issued by NWS Tulsa, OK

Home | Current Version | Previous Version | Text Only | Print | Product List | Glossary On
Versions: 1 2 3 4 5 6 7 8 9 10 11 12 13 14 15 16 17
000
FTUS44 KTSA 221100
TAFFSM
TAF
KFSM 221131Z 2212/2312 09007KT P6SM SCT250
     FM230000 08006KT P6SM BKN100 PROB30 2306/2312 3SM TSRA
      BKN030CB=

USA.gov is the U.S. government's official web portal to all federal, state and local government web resources and services.